To NAV CANADA Home Page Login to a new session Search on AWWS site Feedback and Comments Disclaimer Vers la page française équivalente Tips FAQ What's new on the site To the Forecasts and Observations / NOTAM section To "File a Flight Plan" website Publications and other links Update of the User's profile FIC Telephone Numbers My Weather Data Folder Route Weather Data Regional Weather Data Local Weather Data To the Forecasts and Observations / NOTAM section
Request Generated 08/29/2015 at 14:34:26 UTC . Weather information available at that time is displayed.

METAR/TAF

HOPE/BC    (show WxCam)

SPECI CYHE 291413Z AUTO 09007KT 9SM -RA BKN120 BKN150 16/15 A2952 RMK
TS/LTNG TEMPO UNAVBL SLP996 DENSITY ALT 700FT=
METAR CYHE 291400Z AUTO 09010KT 9SM BKN120 OVC140 16/15 A2952 RMK
TS/LTNG TEMPO UNAVBL SLP998 DENSITY ALT 700FT=
METAR CYHE 291300Z AUTO 12012KT 9SM OVC120 16/15 A2957 RMK SLP013
DENSITY ALT 600FT=
SPECI CYHE 291257Z AUTO 12012KT 9SM OVC120 16/15 A2957 RMK TS/LTNG
TEMPO UNAVBL SLP013 DENSITY ALT 600FT=
METAR CYHE 291200Z AUTO 12010KT 9SM -RA OVC110 16/15 A2963 RMK PRESFR
PCPN 0.8MM PAST HR TS/LTNG TEMPO UNAVBL SLP033 DENSITY ALT 600FT=

CYHE - No TAF is issued for this station

Your time UTC time
Weather data provided by Environment Canada and NAV CANADA